sensor_id;sensor_type;location;lat;lon;timestamp;pressure;altitude;pressure_sealevel;temperature;humidity
35331;BME280;21441;52.190;20.910;2023-05-21T00:01:56;100950.69;;;16.23;68.61
35331;BME280;21441;52.190;20.910;2023-05-21T00:04:24;100949.91;;;16.07;69.25
35331;BME280;21441;52.190;20.910;2023-05-21T00:06:53;100947.28;;;16.14;68.72
35331;BME280;21441;52.190;20.910;2023-05-21T00:09:20;100956.19;;;16.15;68.78
35331;BME280;21441;52.190;20.910;2023-05-21T00:11:47;100951.75;;;16.07;69.10
35331;BME280;21441;52.190;20.910;2023-05-21T00:14:15;100952.13;;;16.04;68.97
35331;BME280;21441;52.190;20.910;2023-05-21T00:16:43;100949.13;;;16.14;68.25
35331;BME280;21441;52.190;20.910;2023-05-21T00:19:11;100953.94;;;15.97;69.11
35331;BME280;21441;52.190;20.910;2023-05-21T00:21:38;100942.13;;;15.98;68.79
35331;BME280;21441;52.190;20.910;2023-05-21T00:24:06;100941.78;;;15.86;69.65
35331;BME280;21441;52.190;20.910;2023-05-21T00:26:33;100948.00;;;15.86;69.71
35331;BME280;21441;52.190;20.910;2023-05-21T00:29:00;100943.94;;;15.76;70.16
35331;BME280;21441;52.190;20.910;2023-05-21T00:31:29;100948.19;;;15.70;70.31
35331;BME280;21441;52.190;20.910;2023-05-21T00:33:57;100954.69;;;15.76;70.07
35331;BME280;21441;52.190;20.910;2023-05-21T00:36:25;100949.03;;;15.71;69.87
35331;BME280;21441;52.190;20.910;2023-05-21T00:38:52;100955.63;;;15.68;70.05
35331;BME280;21441;52.190;20.910;2023-05-21T00:41:20;100955.91;;;15.73;69.79
35331;BME280;21441;52.190;20.910;2023-05-21T00:43:47;100956.16;;;15.78;69.29
35331;BME280;21441;52.190;20.910;2023-05-21T00:46:17;100959.25;;;15.75;69.29
35331;BME280;21441;52.190;20.910;2023-05-21T00:48:47;100958.09;;;15.69;69.73
35331;BME280;21441;52.190;20.910;2023-05-21T00:51:15;100956.28;;;15.55;70.02
35331;BME280;21441;52.190;20.910;2023-05-21T00:53:43;100956.63;;;15.52;70.49
35331;BME280;21441;52.190;20.910;2023-05-21T00:56:11;100961.56;;;15.63;69.93
35331;BME280;21441;52.190;20.910;2023-05-21T00:58:39;100951.44;;;15.65;69.56
35331;BME280;21441;52.190;20.910;2023-05-21T01:01:07;100957.28;;;15.54;70.23
35331;BME280;21441;52.190;20.910;2023-05-21T01:03:38;100963.31;;;15.56;70.37
35331;BME280;21441;52.190;20.910;2023-05-21T01:06:08;100960.81;;;15.55;70.23
35331;BME280;21441;52.190;20.910;2023-05-21T01:08:36;100967.41;;;15.37;71.30
35331;BME280;21441;52.190;20.910;2023-05-21T01:11:06;100959.44;;;15.44;70.87
35331;BME280;21441;52.190;20.910;2023-05-21T01:13:35;100956.34;;;15.47;70.77
35331;BME280;21441;52.190;20.910;2023-05-21T01:16:04;100956.34;;;15.47;70.62
35331;BME280;21441;52.190;20.910;2023-05-21T01:18:33;100956.34;;;15.32;71.26
35331;BME280;21441;52.190;20.910;2023-05-21T01:21:02;100952.00;;;15.31;71.34
35331;BME280;21441;52.190;20.910;2023-05-21T01:23:31;100949.88;;;15.26;71.85
35331;BME280;21441;52.190;20.910;2023-05-21T01:25:59;100951.34;;;15.29;71.34
35331;BME280;21441;52.190;20.910;2023-05-21T01:28:26;100950.16;;;15.32;71.05
35331;BME280;21441;52.190;20.910;2023-05-21T01:30:55;100949.88;;;15.26;71.13
35331;BME280;21441;52.190;20.910;2023-05-21T01:33:29;100952.66;;;15.18;71.11
35331;BME280;21441;52.190;20.910;2023-05-21T01:36:02;100951.16;;;15.16;70.96
35331;BME280;21441;52.190;20.910;2023-05-21T01:38:36;100944.59;;;15.18;70.77
35331;BME280;21441;52.190;20.910;2023-05-21T01:41:10;100942.94;;;15.17;70.62
35331;BME280;21441;52.190;20.910;2023-05-21T01:43:40;100939.28;;;15.10;68.22
35331;BME280;21441;52.190;20.910;2023-05-21T01:46:08;100941.69;;;15.05;68.99
35331;BME280;21441;52.190;20.910;2023-05-21T01:48:36;100939.28;;;15.10;68.84
35331;BME280;21441;52.190;20.910;2023-05-21T01:51:05;100948.72;;;15.06;68.68
35331;BME280;21441;52.190;20.910;2023-05-21T01:53:33;100929.47;;;15.02;68.38
35331;BME280;21441;52.190;20.910;2023-05-21T01:56:00;100937.16;;;15.05;67.88
35331;BME280;21441;52.190;20.910;2023-05-21T01:58:28;100942.44;;;14.99;68.24
35331;BME280;21441;52.190;20.910;2023-05-21T02:00:55;100946.41;;;15.03;67.62
35331;BME280;21441;52.190;20.910;2023-05-21T02:03:24;100950.13;;;15.02;67.74
35331;BME280;21441;52.190;20.910;2023-05-21T02:05:52;100943.63;;;14.96;67.71
35331;BME280;21441;52.190;20.910;2023-05-21T02:08:20;100934.63;;;14.89;67.06
35331;BME280;21441;52.190;20.910;2023-05-21T02:10:49;100944.41;;;14.82;67.48
35331;BME280;21441;52.190;20.910;2023-05-21T02:13:16;100947.13;;;14.97;66.66
35331;BME280;21441;52.190;20.910;2023-05-21T02:15:45;100942.38;;;14.84;67.17
35331;BME280;21441;52.190;20.910;2023-05-21T02:18:13;100942.97;;;14.94;65.35
35331;BME280;21441;52.190;20.910;2023-05-21T02:20:41;100947.41;;;14.87;65.97
35331;BME280;21441;52.190;20.910;2023-05-21T02:23:09;100951.47;;;14.83;65.60
35331;BME280;21441;52.190;20.910;2023-05-21T02:25:36;100940.72;;;14.83;65.37
35331;BME280;21441;52.190;20.910;2023-05-21T02:28:04;100939.91;;;14.82;65.13
35331;BME280;21441;52.190;20.910;2023-05-21T02:30:32;100937.13;;;14.76;65.32
35331;BME280;21441;52.190;20.910;2023-05-21T02:32:59;100942.97;;;14.56;66.48
35331;BME280;21441;52.190;20.910;2023-05-21T02:35:27;100942.16;;;14.71;65.53
35331;BME280;21441;52.190;20.910;2023-05-21T02:37:54;100937.66;;;14.71;65.97
35331;BME280;21441;52.190;20.910;2023-05-21T02:40:24;100931.97;;;14.66;65.91
35331;BME280;21441;52.190;20.910;2023-05-21T02:42:51;100935.75;;;14.80;65.30
35331;BME280;21441;52.190;20.910;2023-05-21T02:45:19;100929.41;;;14.73;65.35
35331;BME280;21441;52.190;20.910;2023-05-21T02:47:46;100930.59;;;14.70;65.72
35331;BME280;21441;52.190;20.910;2023-05-21T02:50:14;100938.19;;;14.67;66.08
35331;BME280;21441;52.190;20.910;2023-05-21T02:52:41;100928.28;;;14.67;66.32
35331;BME280;21441;52.190;20.910;2023-05-21T02:55:08;100930.72;;;14.77;65.91
35331;BME280;21441;52.190;20.910;2023-05-21T02:57:35;100925.88;;;14.72;66.22
35331;BME280;21441;52.190;20.910;2023-05-21T03:00:03;100932.81;;;14.67;66.78
35331;BME280;21441;52.190;20.910;2023-05-21T03:02:34;100926.97;;;14.63;67.08
35331;BME280;21441;52.190;20.910;2023-05-21T03:05:02;100935.44;;;14.75;66.80
35331;BME280;21441;52.190;20.910;2023-05-21T03:07:29;100933.78;;;14.74;66.80
35331;BME280;21441;52.190;20.910;2023-05-21T03:09:57;100932.56;;;14.76;66.58
35331;BME280;21441;52.190;20.910;2023-05-21T03:12:24;100927.56;;;14.88;65.97
35331;BME280;21441;52.190;20.910;2023-05-21T03:14:51;100923.50;;;14.92;66.16
35331;BME280;21441;52.190;20.910;2023-05-21T03:17:19;100924.34;;;14.93;66.05
35331;BME280;21441;52.190;20.910;2023-05-21T03:19:48;100918.31;;;14.91;66.33
35331;BME280;21441;52.190;20.910;2023-05-21T03:22:15;100916.28;;;14.93;66.21
35331;BME280;21441;52.190;20.910;2023-05-21T03:24:42;100917.34;;;15.06;65.96
35331;BME280;21441;52.190;20.910;2023-05-21T03:27:11;100918.44;;;15.12;65.60
35331;BME280;21441;52.190;20.910;2023-05-21T03:29:38;100920.56;;;15.17;65.38
35331;BME280;21441;52.190;20.910;2023-05-21T03:32:06;100917.44;;;15.13;65.40
35331;BME280;21441;52.190;20.910;2023-05-21T03:34:33;100915.03;;;15.18;64.98
35331;BME280;21441;52.190;20.910;2023-05-21T03:37:02;100909.00;;;15.31;64.87
35331;BME280;21441;52.190;20.910;2023-05-21T03:39:29;100911.94;;;15.36;64.54
35331;BME280;21441;52.190;20.910;2023-05-21T03:41:56;100904.81;;;15.43;63.80
35331;BME280;21441;52.190;20.910;2023-05-21T03:44:24;100902.22;;;15.50;63.61
35331;BME280;21441;52.190;20.910;2023-05-21T03:46:51;100910.91;;;15.52;63.69
35331;BME280;21441;52.190;20.910;2023-05-21T03:49:18;100900.16;;;15.52;64.00
35331;BME280;21441;52.190;20.910;2023-05-21T03:51:46;100906.66;;;15.58;63.16
35331;BME280;21441;52.190;20.910;2023-05-21T03:54:14;100904.31;;;15.69;62.87
35331;BME280;21441;52.190;20.910;2023-05-21T03:56:41;100906.56;;;15.81;62.18
35331;BME280;21441;52.190;20.910;2023-05-21T03:59:09;100913.50;;;15.90;61.49
35331;BME280;21441;52.190;20.910;2023-05-21T04:01:36;100904.28;;;15.99;61.52
35331;BME280;21441;52.190;20.910;2023-05-21T04:04:04;100902.69;;;16.05;61.41
35331;BME280;21441;52.190;20.910;2023-05-21T04:06:31;100911.44;;;16.14;60.70
35331;BME280;21441;52.190;20.910;2023-05-21T04:08:58;100911.09;;;16.17;60.27
35331;BME280;21441;52.190;20.910;2023-05-21T04:11:27;100915.00;;;16.36;58.38
35331;BME280;21441;52.190;20.910;2023-05-21T04:13:54;100913.16;;;16.36;57.87
35331;BME280;21441;52.190;20.910;2023-05-21T04:16:21;100904.78;;;16.31;58.54
35331;BME280;21441;52.190;20.910;2023-05-21T04:18:49;100904.66;;;16.39;58.58
35331;BME280;21441;52.190;20.910;2023-05-21T04:21:17;100916.19;;;16.55;56.79
35331;BME280;21441;52.190;20.910;2023-05-21T04:23:44;100917.47;;;16.59;57.04
35331;BME280;21441;52.190;20.910;2023-05-21T04:26:11;100902.00;;;16.67;56.28
35331;BME280;21441;52.190;20.910;2023-05-21T04:28:42;100908.03;;;16.69;56.63
35331;BME280;21441;52.190;20.910;2023-05-21T04:31:10;100900.19;;;16.96;55.80
35331;BME280;21441;52.190;20.910;2023-05-21T04:33:38;100890.44;;;16.95;54.78
35331;BME280;21441;52.190;20.910;2023-05-21T04:36:06;100896.06;;;17.00;54.26
35331;BME280;21441;52.190;20.910;2023-05-21T04:38:36;100893.63;;;17.12;54.35
35331;BME280;21441;52.190;20.910;2023-05-21T04:41:06;100892.19;;;17.09;54.33
35331;BME280;21441;52.190;20.910;2023-05-21T04:43:35;100894.00;;;17.02;54.69
35331;BME280;21441;52.190;20.910;2023-05-21T04:46:04;100892.69;;;17.26;53.62
35331;BME280;21441;52.190;20.910;2023-05-21T04:48:31;100897.72;;;17.36;53.01
35331;BME280;21441;52.190;20.910;2023-05-21T04:50:58;100890.69;;;17.42;52.71
35331;BME280;21441;52.190;20.910;2023-05-21T04:53:25;100884.44;;;17.35;52.79
35331;BME280;21441;52.190;20.910;2023-05-21T04:55:53;100888.31;;;17.25;53.58
35331;BME280;21441;52.190;20.910;2023-05-21T04:58:20;100893.63;;;17.47;52.52
35331;BME280;21441;52.190;20.910;2023-05-21T05:00:47;100895.31;;;17.55;51.96
35331;BME280;21441;52.190;20.910;2023-05-21T05:03:17;100899.44;;;17.44;52.57
35331;BME280;21441;52.190;20.910;2023-05-21T05:05:44;100887.19;;;17.41;53.26
35331;BME280;21441;52.190;20.910;2023-05-21T05:08:12;100896.16;;;17.55;52.67
35331;BME280;21441;52.190;20.910;2023-05-21T05:10:39;100898.06;;;17.61;51.69
35331;BME280;21441;52.190;20.910;2023-05-21T05:13:07;100895.59;;;17.73;51.86
35331;BME280;21441;52.190;20.910;2023-05-21T05:15:34;100890.91;;;17.88;51.90
35331;BME280;21441;52.190;20.910;2023-05-21T05:18:02;100896.44;;;17.80;51.69
35331;BME280;21441;52.190;20.910;2023-05-21T05:20:30;100886.56;;;17.87;51.91
35331;BME280;21441;52.190;20.910;2023-05-21T05:22:57;100884.25;;;17.91;52.04
35331;BME280;21441;52.190;20.910;2023-05-21T05:25:25;100887.00;;;18.11;51.75
35331;BME280;21441;52.190;20.910;2023-05-21T05:27:53;100889.50;;;18.12;52.19
35331;BME280;21441;52.190;20.910;2023-05-21T05:30:20;100879.78;;;18.31;51.13
35331;BME280;21441;52.190;20.910;2023-05-21T05:32:47;100882.03;;;18.28;51.82
35331;BME280;21441;52.190;20.910;2023-05-21T05:35:14;100886.00;;;18.59;51.12
35331;BME280;21441;52.190;20.910;2023-05-21T05:37:42;100886.63;;;18.54;50.02
35331;BME280;21441;52.190;20.910;2023-05-21T05:40:10;100882.28;;;18.80;50.70
35331;BME280;21441;52.190;20.910;2023-05-21T05:42:37;100882.06;;;18.81;49.54
35331;BME280;21441;52.190;20.910;2023-05-21T05:45:04;100876.66;;;18.81;49.75
35331;BME280;21441;52.190;20.910;2023-05-21T05:47:32;100878.28;;;19.02;49.60
35331;BME280;21441;52.190;20.910;2023-05-21T05:49:59;100876.22;;;18.98;49.71
35331;BME280;21441;52.190;20.910;2023-05-21T05:52:26;100876.41;;;19.09;48.51
35331;BME280;21441;52.190;20.910;2023-05-21T05:54:54;100867.28;;;19.04;49.04
35331;BME280;21441;52.190;20.910;2023-05-21T05:57:22;100871.63;;;19.11;48.82
35331;BME280;21441;52.190;20.910;2023-05-21T05:59:49;100867.88;;;19.19;49.01
35331;BME280;21441;52.190;20.910;2023-05-21T06:02:16;100871.13;;;19.34;49.28
35331;BME280;21441;52.190;20.910;2023-05-21T06:04:43;100864.78;;;19.54;48.77
35331;BME280;21441;52.190;20.910;2023-05-21T06:07:11;100864.75;;;19.67;48.38
35331;BME280;21441;52.190;20.910;2023-05-21T06:09:38;100864.53;;;19.69;48.68
35331;BME280;21441;52.190;20.910;2023-05-21T06:12:07;100868.25;;;19.81;48.29
35331;BME280;21441;52.190;20.910;2023-05-21T06:14:34;100867.50;;;19.99;48.01
35331;BME280;21441;52.190;20.910;2023-05-21T06:17:01;100864.91;;;20.11;48.10
35331;BME280;21441;52.190;20.910;2023-05-21T06:19:28;100872.34;;;20.22;46.80
35331;BME280;21441;52.190;20.910;2023-05-21T06:21:55;100874.13;;;20.35;46.97
35331;BME280;21441;52.190;20.910;2023-05-21T06:24:22;100871.56;;;20.47;46.00
35331;BME280;21441;52.190;20.910;2023-05-21T06:26:49;100859.38;;;20.56;46.19
35331;BME280;21441;52.190;20.910;2023-05-21T06:29:18;100868.78;;;20.78;45.61
35331;BME280;21441;52.190;20.910;2023-05-21T06:31:45;100867.97;;;20.78;46.16
35331;BME280;21441;52.190;20.910;2023-05-21T06:34:13;100873.31;;;20.85;45.97
35331;BME280;21441;52.190;20.910;2023-05-21T06:36:40;100873.41;;;20.96;44.83
35331;BME280;21441;52.190;20.910;2023-05-21T06:39:07;100867.91;;;21.03;45.00
35331;BME280;21441;52.190;20.910;2023-05-21T06:41:35;100862.19;;;21.11;45.25
35331;BME280;21441;52.190;20.910;2023-05-21T06:44:02;100854.19;;;20.98;43.69
35331;BME280;21441;52.190;20.910;2023-05-21T06:46:31;100865.28;;;21.15;43.19
35331;BME280;21441;52.190;20.910;2023-05-21T06:48:59;100858.88;;;21.28;43.14
35331;BME280;21441;52.190;20.910;2023-05-21T06:51:27;100860.78;;;21.46;43.64
35331;BME280;21441;52.190;20.910;2023-05-21T06:53:54;100853.31;;;21.71;43.58
35331;BME280;21441;52.190;20.910;2023-05-21T06:56:21;100855.00;;;21.72;42.85
35331;BME280;21441;52.190;20.910;2023-05-21T06:58:48;100844.34;;;21.71;42.69
35331;BME280;21441;52.190;20.910;2023-05-21T07:01:16;100852.66;;;21.76;42.76
35331;BME280;21441;52.190;20.910;2023-05-21T07:03:44;100850.25;;;21.68;42.54
35331;BME280;21441;52.190;20.910;2023-05-21T07:06:11;100847.28;;;21.69;42.30
35331;BME280;21441;52.190;20.910;2023-05-21T07:08:38;100844.72;;;21.74;42.61
35331;BME280;21441;52.190;20.910;2023-05-21T07:11:05;100846.13;;;21.65;43.00
35331;BME280;21441;52.190;20.910;2023-05-21T07:13:33;100844.97;;;21.73;43.73
35331;BME280;21441;52.190;20.910;2023-05-21T07:16:01;100840.03;;;21.81;42.20
35331;BME280;21441;52.190;20.910;2023-05-21T07:18:28;100834.50;;;21.88;42.02
35331;BME280;21441;52.190;20.910;2023-05-21T07:20:57;100836.53;;;21.93;42.22
35331;BME280;21441;52.190;20.910;2023-05-21T07:23:24;100838.31;;;22.11;43.01
35331;BME280;21441;52.190;20.910;2023-05-21T07:25:51;100832.25;;;22.27;41.98
35331;BME280;21441;52.190;20.910;2023-05-21T07:28:19;100830.25;;;22.22;40.89
35331;BME280;21441;52.190;20.910;2023-05-21T07:30:46;100837.69;;;22.27;41.93
35331;BME280;21441;52.190;20.910;2023-05-21T07:33:13;100829.44;;;22.45;40.29
35331;BME280;21441;52.190;20.910;2023-05-21T07:35:41;100828.50;;;22.40;41.34
35331;BME280;21441;52.190;20.910;2023-05-21T07:38:09;100825.66;;;22.35;40.87
35331;BME280;21441;52.190;20.910;2023-05-21T07:40:38;100826.00;;;22.50;39.89
35331;BME280;21441;52.190;20.910;2023-05-21T07:43:05;100832.38;;;22.32;41.02
35331;BME280;21441;52.190;20.910;2023-05-21T07:45:33;100827.44;;;22.41;41.17
35331;BME280;21441;52.190;20.910;2023-05-21T07:48:00;100827.78;;;22.56;40.21
35331;BME280;21441;52.190;20.910;2023-05-21T07:50:27;100821.19;;;22.64;38.98
35331;BME280;21441;52.190;20.910;2023-05-21T07:52:54;100825.19;;;22.50;38.15
35331;BME280;21441;52.190;20.910;2023-05-21T07:55:23;100819.75;;;22.61;38.88
35331;BME280;21441;52.190;20.910;2023-05-21T07:57:50;100824.63;;;22.59;38.30
35331;BME280;21441;52.190;20.910;2023-05-21T08:00:18;100822.94;;;22.58;38.80
35331;BME280;21441;52.190;20.910;2023-05-21T08:02:45;100819.41;;;22.58;39.97
35331;BME280;21441;52.190;20.910;2023-05-21T08:05:13;100822.94;;;22.58;38.75
35331;BME280;21441;52.190;20.910;2023-05-21T08:07:40;100822.09;;;22.70;37.92
35331;BME280;21441;52.190;20.910;2023-05-21T08:10:08;100813.84;;;22.64;38.16
35331;BME280;21441;52.190;20.910;2023-05-21T08:12:36;100808.66;;;22.75;37.83
35331;BME280;21441;52.190;20.910;2023-05-21T08:15:04;100810.06;;;22.77;37.12
35331;BME280;21441;52.190;20.910;2023-05-21T08:17:31;100808.00;;;22.96;37.64
35331;BME280;21441;52.190;20.910;2023-05-21T08:19:59;100807.66;;;22.93;38.52
35331;BME280;21441;52.190;20.910;2023-05-21T08:22:25;100814.50;;;23.07;37.37
35331;BME280;21441;52.190;20.910;2023-05-21T08:24:53;100813.78;;;23.23;37.20
35331;BME280;21441;52.190;20.910;2023-05-21T08:27:20;100805.84;;;23.22;37.13
35331;BME280;21441;52.190;20.910;2023-05-21T08:29:48;100800.34;;;23.34;36.42
35331;BME280;21441;52.190;20.910;2023-05-21T08:32:16;100801.13;;;23.17;36.83
35331;BME280;21441;52.190;20.910;2023-05-21T08:34:43;100800.16;;;23.23;36.63
35331;BME280;21441;52.190;20.910;2023-05-21T08:37:11;100796.09;;;23.38;36.70
35331;BME280;21441;52.190;20.910;2023-05-21T08:39:38;100797.09;;;23.48;36.46
35331;BME280;21441;52.190;20.910;2023-05-21T08:42:12;100810.13;;;23.18;37.06
35331;BME280;21441;52.190;20.910;2023-05-21T08:44:44;100798.78;;;22.97;37.61
35331;BME280;21441;52.190;20.910;2023-05-21T08:47:17;100807.06;;;23.02;37.27
35331;BME280;21441;52.190;20.910;2023-05-21T08:49:50;100794.75;;;23.12;37.06
35331;BME280;21441;52.190;20.910;2023-05-21T08:52:17;100796.94;;;23.26;36.56
35331;BME280;21441;52.190;20.910;2023-05-21T08:54:47;100796.56;;;23.35;36.21
35331;BME280;21441;52.190;20.910;2023-05-21T08:57:17;100796.44;;;23.41;37.18
35331;BME280;21441;52.190;20.910;2023-05-21T08:59:45;100798.50;;;23.51;36.80
35331;BME280;21441;52.190;20.910;2023-05-21T09:02:13;100792.84;;;23.53;36.64
35331;BME280;21441;52.190;20.910;2023-05-21T09:04:42;100794.63;;;23.47;35.63
35331;BME280;21441;52.190;20.910;2023-05-21T09:07:12;100803.00;;;23.57;36.85
35331;BME280;21441;52.190;20.910;2023-05-21T09:09:44;100796.88;;;23.79;36.06
35331;BME280;21441;52.190;20.910;2023-05-21T09:12:13;100810.84;;;23.71;36.77
35331;BME280;21441;52.190;20.910;2023-05-21T09:14:42;100801.00;;;23.81;37.37
35331;BME280;21441;52.190;20.910;2023-05-21T09:17:12;100796.50;;;23.87;36.67
35331;BME280;21441;52.190;20.910;2023-05-21T09:20:06;100806.38;;;23.93;36.80
35331;BME280;21441;52.190;20.910;2023-05-21T09:22:35;100793.63;;;23.65;35.26
35331;BME280;21441;52.190;20.910;2023-05-21T09:25:05;100790.75;;;23.72;35.11
35331;BME280;21441;52.190;20.910;2023-05-21T09:27:34;100786.34;;;23.71;35.91
35331;BME280;21441;52.190;20.910;2023-05-21T09:30:02;100786.84;;;23.96;36.47
35331;BME280;21441;52.190;20.910;2023-05-21T09:32:31;100791.38;;;24.07;35.29
35331;BME280;21441;52.190;20.910;2023-05-21T09:35:06;100784.94;;;23.68;34.23
35331;BME280;21441;52.190;20.910;2023-05-21T09:37:37;100784.03;;;23.91;34.88
35331;BME280;21441;52.190;20.910;2023-05-21T09:40:16;100781.03;;;23.76;35.00
35331;BME280;21441;52.190;20.910;2023-05-21T09:42:45;100773.28;;;24.01;34.51
35331;BME280;21441;52.190;20.910;2023-05-21T09:45:17;100789.91;;;24.00;35.56
35331;BME280;21441;52.190;20.910;2023-05-21T09:47:46;100785.41;;;23.77;35.34
35331;BME280;21441;52.190;20.910;2023-05-21T09:50:17;100782.97;;;23.63;35.61
35331;BME280;21441;52.190;20.910;2023-05-21T09:52:45;100791.78;;;23.71;34.63
35331;BME280;21441;52.190;20.910;2023-05-21T09:55:13;100780.72;;;23.89;34.60
35331;BME280;21441;52.190;20.910;2023-05-21T09:57:40;100787.31;;;23.93;33.75
35331;BME280;21441;52.190;20.910;2023-05-21T10:00:16;100786.31;;;23.99;33.40
35331;BME280;21441;52.190;20.910;2023-05-21T10:02:44;100773.03;;;24.03;34.26
35331;BME280;21441;52.190;20.910;2023-05-21T10:05:13;100784.34;;;24.28;34.43
35331;BME280;21441;52.190;20.910;2023-05-21T10:07:47;100776.25;;;24.34;32.34
35331;BME280;21441;52.190;20.910;2023-05-21T10:10:16;100780.13;;;24.21;32.33
35331;BME280;21441;52.190;20.910;2023-05-21T10:12:46;100766.69;;;24.14;33.76
35331;BME280;21441;52.190;20.910;2023-05-21T10:15:15;100776.75;;;24.14;33.89
35331;BME280;21441;52.190;20.910;2023-05-21T10:17:46;100778.16;;;23.99;33.62
35331;BME280;21441;52.190;20.910;2023-05-21T10:20:15;100772.22;;;24.02;32.72
35331;BME280;21441;52.190;20.910;2023-05-21T10:22:44;100774.09;;;24.36;33.97
35331;BME280;21441;52.190;20.910;2023-05-21T10:25:12;100769.22;;;24.21;32.00
35331;BME280;21441;52.190;20.910;2023-05-21T10:27:40;100768.19;;;24.22;33.20
35331;BME280;21441;52.190;20.910;2023-05-21T10:30:08;100779.97;;;24.27;33.05
35331;BME280;21441;52.190;20.910;2023-05-21T10:32:35;100763.78;;;24.21;32.60
35331;BME280;21441;52.190;20.910;2023-05-21T10:35:02;100761.69;;;24.45;32.22
35331;BME280;21441;52.190;20.910;2023-05-21T10:37:30;100763.75;;;24.55;31.96
35331;BME280;21441;52.190;20.910;2023-05-21T10:39:59;100765.28;;;24.67;32.06
35331;BME280;21441;52.190;20.910;2023-05-21T10:42:47;100759.47;;;25.03;31.77
35331;BME280;21441;52.190;20.910;2023-05-21T10:45:24;100762.19;;;25.03;33.09
35331;BME280;21441;52.190;20.910;2023-05-21T10:48:03;100746.00;;;24.96;32.65
35331;BME280;21441;52.190;20.910;2023-05-21T10:50:49;100746.78;;;24.91;31.59
35331;BME280;21441;52.190;20.910;2023-05-21T10:53:30;100742.03;;;25.26;32.08
35331;BME280;21441;52.190;20.910;2023-05-21T10:56:13;100746.91;;;25.24;31.78
35331;BME280;21441;52.190;20.910;2023-05-21T10:58:55;100750.59;;;25.12;32.14
35331;BME280;21441;52.190;20.910;2023-05-21T11:01:30;100742.59;;;25.28;32.14
35331;BME280;21441;52.190;20.910;2023-05-21T11:04:00;100746.19;;;25.33;32.73
35331;BME280;21441;52.190;20.910;2023-05-21T11:06:28;100739.28;;;25.04;32.16
35331;BME280;21441;52.190;20.910;2023-05-21T11:08:55;100737.59;;;24.98;32.41
35331;BME280;21441;52.190;20.910;2023-05-21T11:11:40;100731.41;;;24.85;31.12
35331;BME280;21441;52.190;20.910;2023-05-21T11:14:31;100730.78;;;25.00;31.55
35331;BME280;21441;52.190;20.910;2023-05-21T11:17:00;100727.38;;;25.10;30.09
35331;BME280;21441;52.190;20.910;2023-05-21T11:19:33;100719.88;;;25.22;32.95
35331;BME280;21441;52.190;20.910;2023-05-21T11:22:05;100728.78;;;25.18;31.88
35331;BME280;21441;52.190;20.910;2023-05-21T11:24:36;100727.97;;;25.17;32.40
35331;BME280;21441;52.190;20.910;2023-05-21T11:27:06;100721.44;;;25.18;31.22
35331;BME280;21441;52.190;20.910;2023-05-21T11:29:38;100732.66;;;24.95;32.63
35331;BME280;21441;52.190;20.910;2023-05-21T11:32:07;100711.97;;;25.21;32.38
35331;BME280;21441;52.190;20.910;2023-05-21T11:34:39;100705.41;;;25.86;31.73
35331;BME280;21441;52.190;20.910;2023-05-21T11:37:29;100713.34;;;25.83;30.72
35331;BME280;21441;52.190;20.910;2023-05-21T11:39:58;100710.72;;;25.66;30.69
35331;BME280;21441;52.190;20.910;2023-05-21T11:42:48;100704.66;;;25.31;31.47
35331;BME280;21441;52.190;20.910;2023-05-21T11:45:16;100715.38;;;25.65;29.85
35331;BME280;21441;52.190;20.910;2023-05-21T11:47:45;100712.22;;;25.84;31.87
35331;BME280;21441;52.190;20.910;2023-05-21T11:50:12;100708.78;;;25.61;30.25
35331;BME280;21441;52.190;20.910;2023-05-21T11:52:41;100717.13;;;25.82;30.89
35331;BME280;21441;52.190;20.910;2023-05-21T11:55:08;100709.88;;;25.60;31.59
35331;BME280;21441;52.190;20.910;2023-05-21T11:57:36;100704.88;;;25.84;32.36
35331;BME280;21441;52.190;20.910;2023-05-21T12:00:11;100697.91;;;25.99;31.34
35331;BME280;21441;52.190;20.910;2023-05-21T12:02:43;100714.31;;;26.04;32.31
35331;BME280;21441;52.190;20.910;2023-05-21T12:05:10;100701.59;;;25.82;32.50
35331;BME280;21441;52.190;20.910;2023-05-21T12:07:38;100709.94;;;25.38;34.26
35331;BME280;21441;52.190;20.910;2023-05-21T12:10:05;100706.00;;;25.56;31.58
35331;BME280;21441;52.190;20.910;2023-05-21T12:12:33;100704.53;;;25.76;31.30
35331;BME280;21441;52.190;20.910;2023-05-21T12:15:01;100697.88;;;25.93;29.81
35331;BME280;21441;52.190;20.910;2023-05-21T12:17:30;100709.72;;;26.09;31.21
35331;BME280;21441;52.190;20.910;2023-05-21T12:19:58;100697.09;;;25.98;31.21
35331;BME280;21441;52.190;20.910;2023-05-21T12:22:26;100693.19;;;26.37;31.90
35331;BME280;21441;52.190;20.910;2023-05-21T12:24:54;100706.13;;;26.46;31.97
35331;BME280;21441;52.190;20.910;2023-05-21T12:27:26;100696.22;;;26.35;31.00
35331;BME280;21441;52.190;20.910;2023-05-21T12:29:53;100689.66;;;26.41;31.65
35331;BME280;21441;52.190;20.910;2023-05-21T12:32:21;100689.25;;;26.17;31.56
35331;BME280;21441;52.190;20.910;2023-05-21T12:34:50;100687.06;;;26.62;31.33
35331;BME280;21441;52.190;20.910;2023-05-21T12:37:20;100686.03;;;26.73;31.00
35331;BME280;21441;52.190;20.910;2023-05-21T12:39:49;100689.56;;;26.68;31.13
35331;BME280;21441;52.190;20.910;2023-05-21T12:42:23;100675.56;;;26.60;30.36
35331;BME280;21441;52.190;20.910;2023-05-21T12:44:51;100670.25;;;27.01;30.87
35331;BME280;21441;52.190;20.910;2023-05-21T12:47:22;100680.09;;;27.02;30.45
35331;BME280;21441;52.190;20.910;2023-05-21T12:49:52;100677.09;;;27.08;30.58